Time;durP1;ratioP1;P1;durP2;ratioP2;P2;SDS_P1;SDS_P2;PMS_P1;PMS_P2;Temp;Humidity;BMP_temperature;BMP_pressure;BME280_temperature;BME280_humidity;BME280_pressure;Samples;Min_cycle;Max_cycle;Signal;HPM_P1;HPM_P2
2022/08/11 00:01:51;;;;;;;7.28;4.97;;;27.30;58.70;;;;;;5049150;28;20017;-72
2022/08/11 00:04:20;;;;;;;8.77;5.28;;;27.30;58.70;;;;;;5049083;28;20103;-78
2022/08/11 00:06:47;;;;;;;9.23;4.70;;;27.30;58.80;;;;;;5049068;28;20528;-74
2022/08/11 00:09:20;;;;;;;8.73;4.82;;;27.20;58.90;;;;;;5046175;28;20024;-74
2022/08/11 00:11:55;;;;;;;8.40;5.05;;;27.10;59.20;;;;;;5034667;28;20132;-75
2022/08/11 00:14:23;;;;;;;8.30;5.25;;;27.10;59.50;;;;;;5035922;28;20474;-75
2022/08/11 00:16:59;;;;;;;9.90;5.40;;;27.10;59.50;;;;;;5035582;28;20029;-73
2022/08/11 00:19:32;;;;;;;8.23;5.18;;;27.10;59.40;;;;;;5035575;28;20033;-73
2022/08/11 00:21:59;;;;;;;6.57;5.20;;;27.10;59.40;;;;;;5035609;28;20025;-73
2022/08/11 00:24:35;;;;;;;9.10;5.53;;;27.10;59.50;;;;;;5035453;28;20486;-74
2022/08/11 00:27:03;;;;;;;7.85;5.13;;;27.10;59.60;;;;;;5034217;28;20159;-72
2022/08/11 00:29:29;;;;;;;9.63;5.00;;;27.00;60.10;;;;;;5035567;28;20387;-74
2022/08/11 00:31:58;;;;;;;7.22;5.60;;;27.00;59.60;;;;;;5035479;28;20040;-72
2022/08/11 00:34:30;;;;;;;7.57;5.25;;;27.00;59.90;;;;;;5035441;28;20036;-72
2022/08/11 00:37:07;;;;;;;6.57;4.95;;;27.00;59.80;;;;;;5035253;28;20032;-73
2022/08/11 00:39:41;;;;;;;9.88;5.30;;;27.00;60.00;;;;;;5035231;28;20033;-74
2022/08/11 00:42:15;;;;;;;8.55;5.57;;;27.00;59.90;;;;;;5035269;28;20029;-74
2022/08/11 00:44:53;;;;;;;8.30;5.43;;;27.00;60.00;;;;;;5035236;28;20032;-73
2022/08/11 00:47:30;;;;;;;8.95;5.13;;;27.00;60.80;;;;;;5035088;28;20029;-72
2022/08/11 00:50:24;;;;;;;8.43;5.32;;;27.00;60.20;;;;;;5035002;28;20103;-72
2022/08/11 00:52:50;;;;;;;9.23;5.82;;;27.00;60.50;;;;;;5035019;28;20509;-73
2022/08/11 00:55:46;;;;;;;8.02;4.78;;;27.00;60.30;;;;;;5034909;28;20025;-72
2022/08/11 00:58:48;;;;;;;9.30;5.97;;;27.00;60.70;;;;;;5033382;28;20042;-72
2022/08/11 01:01:17;;;;;;;9.60;5.22;;;27.00;60.80;;;;;;5034802;28;20500;-73
2022/08/11 01:03:57;;;;;;;11.02;5.55;;;27.00;60.60;;;;;;5034832;28;20479;-71
2022/08/11 01:06:45;;;;;;;7.63;5.80;;;27.00;60.90;;;;;;5034441;28;20467;-71
2022/08/11 01:09:29;;;;;;;7.90;6.03;;;26.90;60.80;;;;;;5034785;28;20029;-72
2022/08/11 01:12:14;;;;;;;;;;;26.80;61.00;;;;;;5035138;28;20111;-72
2022/08/11 01:15:11;;;;;;;8.65;5.60;;;26.80;61.80;;;;;;5034510;28;19904;-72
2022/08/11 01:18:07;;;;;;;9.15;6.00;;;26.70;61.30;;;;;;5034527;28;20105;-74
2022/08/11 01:20:54;;;;;;;7.15;5.57;;;26.70;62.20;;;;;;5034455;28;20026;-72
2022/08/11 01:23:56;;;;;;;8.10;5.35;;;26.70;62.10;;;;;;5034147;28;20030;-72
2022/08/11 01:26:52;;;;;;;9.05;5.72;;;26.70;62.40;;;;;;5034590;28;20031;-72
2022/08/11 01:29:20;;;;;;;7.75;5.13;;;26.60;62.10;;;;;;5034641;28;20021;-72
2022/08/11 01:32:22;;;;;;;12.13;5.82;;;26.60;62.40;;;;;;5034439;28;20090;-71
2022/08/11 01:35:22;;;;;;;9.50;5.05;;;26.50;62.40;;;;;;5012189;28;20026;-72
2022/08/11 01:38:24;;;;;;;8.43;5.35;;;26.50;62.60;;;;;;5034092;28;20029;-73
2022/08/11 01:44:36;;;;;;;8.32;5.43;;;26.40;62.70;;;;;;5033983;28;20036;-72
2022/08/11 01:44:39;;;;;;;8.43;5.70;;;26.40;62.80;;;;;;5028675;28;20461;-72
2022/08/11 01:47:49;;;;;;;7.18;4.95;;;26.40;62.80;;;;;;5033897;28;20036;-73
2022/08/11 01:50:27;;;;;;;7.68;5.43;;;26.40;62.80;;;;;;5033620;28;20028;-72
2022/08/11 01:52:55;;;;;;;9.85;5.53;;;26.30;62.90;;;;;;5033932;28;20056;-72
2022/08/11 01:55:32;;;;;;;8.13;5.28;;;26.30;62.60;;;;;;5033787;28;20028;-73
2022/08/11 01:58:34;;;;;;;8.00;5.40;;;26.30;62.90;;;;;;5033623;28;20057;-72
2022/08/11 02:01:18;;;;;;;10.18;5.32;;;26.30;62.80;;;;;;5032345;28;20029;-73
2022/08/11 02:03:59;;;;;;;7.57;5.70;;;26.30;62.80;;;;;;5033684;28;20112;-72
2022/08/11 02:07:01;;;;;;;8.95;5.35;;;26.30;63.00;;;;;;5033566;28;20071;-73
2022/08/11 02:09:54;;;;;;;8.32;5.53;;;26.30;62.80;;;;;;5033698;28;20105;-73
2022/08/11 02:12:38;;;;;;;9.20;5.35;;;26.30;63.00;;;;;;5032255;28;20026;-75
2022/08/11 02:15:13;;;;;;;7.00;5.13;;;26.10;63.10;;;;;;5033431;28;20017;-73
2022/08/11 02:17:49;;;;;;;10.43;5.40;;;26.10;63.20;;;;;;5033259;28;20478;-73
2022/08/11 02:23:58;;;;;;;7.40;4.95;;;26.10;63.40;;;;;;5033494;28;20083;-73
2022/08/11 02:26:45;;;;;;;8.63;4.68;;;26.10;63.70;;;;;;5033062;28;20532;-75
2022/08/11 02:29:28;;;;;;;8.68;5.03;;;26.00;63.20;;;;;;5033150;28;20028;-74
2022/08/11 02:34:56;;;;;;;7.38;4.38;;;26.10;62.60;;;;;;5033279;28;20509;-73
2022/08/11 02:37:35;;;;;;;7.95;4.68;;;26.00;62.20;;;;;;5032940;28;20393;-74
2022/08/11 02:40:26;;;;;;;8.63;4.28;;;26.00;62.00;;;;;;5033291;28;20029;-74
2022/08/11 02:43:04;;;;;;;6.93;3.67;;;25.90;61.30;;;;;;5033747;28;20025;-75
2022/08/11 02:45:46;;;;;;;6.00;3.95;;;25.80;61.40;;;;;;5033453;28;20017;-73
2022/08/11 02:51:33;;;;;;;7.18;4.43;;;25.90;61.80;;;;;;5033330;28;20036;-73
2022/08/11 02:54:31;;;;;;;8.20;4.85;;;25.80;62.00;;;;;;5032209;28;20076;-72
2022/08/11 02:57:05;;;;;;;7.07;4.20;;;25.80;61.70;;;;;;5033528;28;20017;-74
2022/08/11 02:59:50;;;;;;;8.23;4.03;;;25.80;61.80;;;;;;5033166;28;20049;-74
2022/08/11 03:02:30;;;;;;;7.10;4.03;;;25.80;61.80;;;;;;5033319;28;20026;-72
2022/08/11 03:05:12;;;;;;;9.00;4.38;;;25.70;61.10;;;;;;5033324;28;20033;-73
2022/08/11 03:08:08;;;;;;;6.38;4.07;;;25.60;61.30;;;;;;5033207;28;20477;-74
2022/08/11 03:17:29;;;;;;;8.00;4.38;;;25.60;60.80;;;;;;5031042;28;20082;-71
2022/08/11 03:20:20;;;;;;;6.88;4.07;;;25.60;61.00;;;;;;5033181;28;20037;-72
2022/08/11 03:22:49;;;;;;;6.47;3.92;;;25.60;60.90;;;;;;5033204;28;20088;-71
2022/08/11 03:25:41;;;;;;;7.53;4.20;;;25.50;60.90;;;;;;5033130;28;20062;-71
2022/08/11 03:28:10;;;;;;;6.20;3.75;;;25.50;60.80;;;;;;5033136;28;20022;-71
2022/08/11 03:30:53;;;;;;;6.63;3.80;;;25.50;60.90;;;;;;5033130;28;20029;-70
2022/08/11 03:36:21;;;;;;;10.07;4.22;;;25.50;60.40;;;;;;5033078;28;20091;-72
2022/08/11 03:39:02;;;;;;;6.13;4.00;;;25.50;60.70;;;;;;5031493;28;20045;-72
2022/08/11 03:41:43;;;;;;;9.10;4.95;;;25.50;60.30;;;;;;5033141;28;20030;-73
2022/08/11 03:44:30;;;;;;;6.30;3.70;;;25.50;60.20;;;;;;5032858;28;20056;-72
2022/08/11 03:47:07;;;;;;;8.73;4.10;;;25.40;60.10;;;;;;5036832;28;20021;-73
2022/08/11 03:50:10;;;;;;;6.55;3.70;;;25.30;60.70;;;;;;5036582;28;20021;-73
2022/08/11 03:53:00;;;;;;;7.15;3.83;;;25.20;60.90;;;;;;5036717;28;20080;-73
2022/08/11 03:56:00;;;;;;;5.20;3.80;;;25.10;61.10;;;;;;5036922;28;20212;-72
2022/08/11 03:58:31;;;;;;;11.48;4.47;;;25.10;61.50;;;;;;5036245;28;20049;-72
2022/08/11 04:01:14;;;;;;;7.68;3.67;;;25.00;61.60;;;;;;5036651;28;20079;-72
2022/08/11 04:04:36;;;;;;;10.20;3.83;;;25.10;61.80;;;;;;5036472;28;20025;-75
2022/08/11 04:07:24;;;;;;;11.95;4.78;;;25.10;61.80;;;;;;5016036;28;20026;-76
2022/08/11 04:10:10;;;;;;;7.18;4.03;;;25.10;61.10;;;;;;5017048;28;20089;-74
2022/08/11 04:13:05;;;;;;;7.22;4.15;;;25.10;61.80;;;;;;5033637;28;20528;-76
2022/08/11 04:16:07;;;;;;;7.53;3.90;;;25.00;61.70;;;;;;5035842;28;20029;-73
2022/08/11 04:18:52;;;;;;;7.40;4.15;;;25.10;61.70;;;;;;5035359;28;20112;-74
2022/08/11 04:21:29;;;;;;;7.85;4.28;;;25.00;61.70;;;;;;5035544;28;20109;-73
2022/08/11 04:24:21;;;;;;;8.23;4.40;;;25.00;61.80;;;;;;5035329;28;20119;-73
2022/08/11 04:27:14;;;;;;;8.75;4.43;;;25.10;61.70;;;;;;5035423;28;20030;-72
2022/08/11 04:30:13;;;;;;;8.53;4.57;;;25.00;61.90;;;;;;5035832;28;20057;-75
2022/08/11 04:33:08;;;;;;;7.70;3.85;;;25.00;61.70;;;;;;5035632;28;20064;-73
2022/08/11 04:36:01;;;;;;;10.20;4.80;;;25.00;61.70;;;;;;5035646;28;20032;-73
2022/08/11 04:38:45;;;;;;;10.23;4.18;;;24.90;61.60;;;;;;5035453;28;20033;-72
2022/08/11 04:41:31;;;;;;;11.27;4.30;;;24.90;61.60;;;;;;5035427;28;20029;-75
2022/08/11 04:44:28;;;;;;;10.77;4.50;;;24.90;62.60;;;;;;5035263;28;20029;-72
2022/08/11 05:02:43;;;;;;;8.15;4.28;;;24.70;61.40;;;;;;5034913;28;20390;-74
2022/08/11 05:05:34;;;;;;;7.78;4.00;;;24.80;61.10;;;;;;5033297;28;20124;-74
2022/08/11 05:08:21;;;;;;;7.60;4.20;;;24.90;60.80;;;;;;5034762;28;20025;-76
2022/08/11 05:11:17;;;;;;;10.55;4.70;;;24.90;60.50;;;;;;5034871;28;20029;-74
2022/08/11 05:36:34;;;;;;;5.40;3.42;;;25.30;59.60;;;;;;5034619;28;20117;-70
2022/08/11 05:58:44;;;;;;;9.75;3.97;;;27.40;55.70;;;;;;5033846;28;20076;-69
2022/08/11 06:01:13;;;;;;;6.95;3.47;;;27.60;55.10;;;;;;5033932;28;20026;-70
2022/08/11 06:06:29;;;;;;;8.10;3.90;;;27.80;54.00;;;;;;5034024;28;20033;-71
2022/08/11 06:08:56;;;;;;;6.22;3.45;;;27.80;53.80;;;;;;5033405;28;20379;-70
2022/08/11 06:11:23;;;;;;;8.18;3.90;;;28.00;53.80;;;;;;5032697;28;20029;-76
2022/08/11 06:13:51;;;;;;;7.97;3.55;;;28.30;53.40;;;;;;5033690;28;20545;-72
2022/08/11 06:16:23;;;;;;;10.90;4.55;;;28.50;52.70;;;;;;5033630;28;20025;-75
2022/08/11 06:18:50;;;;;;;9.63;4.03;;;28.70;52.50;;;;;;5033582;28;20075;-74
2022/08/11 06:21:17;;;;;;;8.27;3.45;;;28.80;52.20;;;;;;5033954;28;20478;-73
2022/08/11 06:23:44;;;;;;;9.38;3.70;;;29.00;51.80;;;;;;5033601;28;20025;-74
2022/08/11 06:26:11;;;;;;;8.13;3.60;;;28.90;51.80;;;;;;5034424;28;20467;-78
2022/08/11 06:28:39;;;;;;;8.50;4.07;;;28.70;52.00;;;;;;5033601;28;20022;-78
2022/08/11 06:31:25;;;;;;;7.65;4.03;;;28.80;52.20;;;;;;5034269;28;20375;-76
2022/08/11 06:34:18;;;;;;;10.13;3.60;;;28.90;52.00;;;;;;5033843;28;20087;-76
2022/08/11 06:37:42;;;;;;;9.98;4.20;;;28.80;52.10;;;;;;5035365;28;20430;-79
2022/08/11 06:40:24;;;;;;;9.77;3.60;;;28.80;50.60;;;;;;5014669;28;20121;-75
2022/08/11 06:43:16;;;;;;;11.55;4.30;;;28.80;51.00;;;;;;5013904;28;20072;-79
2022/08/11 06:45:52;;;;;;;7.88;3.90;;;28.80;51.90;;;;;;5030658;28;20033;-78
2022/08/11 06:48:21;;;;;;;6.75;3.60;;;28.90;50.80;;;;;;5045046;28;20036;-75
2022/08/11 06:53:55;;;;;;;8.20;3.80;;;29.10;51.50;;;;;;5033947;28;20048;-78
2022/08/11 07:02:25;;;;;;;10.70;3.90;;;29.30;51.30;;;;;;5036602;28;20033;-79
2022/08/11 07:05:03;;;;;;;23.35;7.95;;;29.20;49.70;;;;;;5033062;28;20482;-78
2022/08/11 07:16:50;;;;;;;10.02;4.20;;;29.50;49.30;;;;;;5032214;28;20091;-78
2022/08/11 07:30:48;;;;;;;11.38;4.70;;;29.80;50.40;;;;;;5036904;28;20052;-78
2022/08/11 07:33:27;;;;;;;9.40;4.60;;;29.80;50.20;;;;;;5037339;28;20442;-81
2022/08/11 07:35:56;;;;;;;10.65;4.55;;;30.00;49.00;;;;;;5039495;28;20041;-82
2022/08/11 07:38:42;;;;;;;8.40;4.30;;;30.10;50.00;;;;;;5038332;28;20037;-82
2022/08/11 07:41:21;;;;;;;8.35;4.43;;;30.00;49.90;;;;;;5039128;28;20049;-83
2022/08/11 07:43:53;;;;;;;9.68;4.38;;;30.10;49.50;;;;;;5038752;28;20105;-82
2022/08/11 07:54:40;;;;;;;15.68;5.03;;;30.20;50.00;;;;;;5037805;28;20040;-77
2022/08/11 08:19:23;;;;;;;8.63;4.53;;;30.90;49.40;;;;;;5041657;28;20087;-81
2022/08/11 08:21:49;;;;;;;8.38;4.47;;;31.00;49.50;;;;;;5039394;28;20034;-81
2022/08/11 08:24:22;;;;;;;8.75;5.22;;;31.00;49.30;;;;;;5037428;28;20045;-80
2022/08/11 08:26:58;;;;;;;12.82;4.97;;;31.00;49.30;;;;;;5036090;28;20029;-82
2022/08/11 08:32:20;;;;;;;7.22;4.40;;;31.20;49.30;;;;;;5039151;28;20122;-78
2022/08/11 08:34:49;;;;;;;8.70;5.07;;;31.30;50.80;;;;;;5037545;28;20038;-82
2022/08/11 08:37:25;;;;;;;8.32;4.60;;;31.20;51.30;;;;;;5050306;28;20017;-81
2022/08/11 08:39:54;;;;;;;12.48;4.97;;;31.30;51.80;;;;;;5042375;28;20041;-79
2022/08/11 08:42:28;;;;;;;9.32;4.82;;;31.30;51.40;;;;;;5040961;28;20021;-78
2022/08/11 08:45:09;;;;;;;8.52;4.57;;;31.30;50.20;;;;;;5041092;28;20048;-76
2022/08/11 08:47:42;;;;;;;11.10;5.25;;;31.20;51.60;;;;;;5036962;28;20053;-72
2022/08/11 08:50:18;;;;;;;18.63;5.10;;;31.30;51.80;;;;;;5036210;28;20040;-70
2022/08/11 08:53:00;;;;;;;24.38;7.38;;;31.40;50.80;;;;;;5036246;28;20025;-69
2022/08/11 08:55:29;;;;;;;15.52;5.15;;;31.50;51.70;;;;;;5035752;28;20099;-70
2022/08/11 08:57:59;;;;;;;9.73;4.28;;;31.50;52.00;;;;;;5035318;28;20057;-71
2022/08/11 09:00:37;;;;;;;16.15;5.57;;;31.50;52.30;;;;;;5035209;28;20042;-76
2022/08/11 09:03:03;;;;;;;11.43;5.85;;;31.20;52.70;;;;;;5035752;28;20025;-76
2022/08/11 09:05:29;;;;;;;12.07;5.20;;;31.10;53.00;;;;;;5035036;28;20363;-71
2022/08/11 09:07:56;;;;;;;9.07;4.40;;;31.10;53.30;;;;;;5035099;28;20061;-72
2022/08/11 09:10:24;;;;;;;16.42;5.82;;;31.20;53.40;;;;;;5033475;28;20087;-71
2022/08/11 09:12:50;;;;;;;11.60;5.70;;;31.20;53.30;;;;;;5033362;28;20064;-73
2022/08/11 09:15:19;;;;;;;12.88;5.15;;;31.30;53.50;;;;;;5034811;28;20033;-75
2022/08/11 09:17:49;;;;;;;11.80;5.28;;;31.30;51.80;;;;;;5035135;28;20025;-74
2022/08/11 09:20:23;;;;;;;15.60;6.70;;;31.30;53.10;;;;;;5035455;28;20025;-75
2022/08/11 09:28:29;;;;;;;13.95;5.45;;;31.40;53.20;;;;;;5038562;28;20075;-74
2022/08/11 09:30:59;;;;;;;11.07;4.78;;;31.40;52.90;;;;;;5038585;28;20021;-77
2022/08/11 09:33:28;;;;;;;9.55;4.93;;;31.40;52.80;;;;;;5034674;28;20095;-72
2022/08/11 09:35:56;;;;;;;10.75;5.10;;;31.50;52.70;;;;;;5034318;28;20025;-69
2022/08/11 09:41:11;;;;;;;10.15;5.35;;;31.60;53.00;;;;;;5034967;28;20493;-69
2022/08/11 09:46:29;;;;;;;12.30;5.60;;;31.50;53.70;;;;;;5034417;28;20041;-68
2022/08/11 09:48:59;;;;;;;8.43;4.90;;;31.60;53.90;;;;;;5034395;28;20025;-66
2022/08/11 09:51:30;;;;;;;8.70;4.88;;;31.60;53.90;;;;;;5033992;28;20029;-70
2022/08/11 09:53:58;;;;;;;10.70;5.40;;;31.60;54.00;;;;;;5033809;28;20442;-70
2022/08/11 09:59:09;;;;;;;13.27;4.78;;;31.70;53.40;;;;;;5033958;28;20056;-69
2022/08/11 10:02:00;;;;;;;13.32;5.00;;;31.70;53.10;;;;;;5034328;28;20036;-70
2022/08/11 10:04:37;;;;;;;19.17;5.55;;;31.70;51.30;;;;;;5030874;28;20045;-69
2022/08/11 10:07:05;;;;;;;9.85;4.95;;;31.70;52.30;;;;;;5032604;28;20076;-69
2022/08/11 10:09:56;;;;;;;8.52;5.32;;;31.60;51.60;;;;;;5034404;28;20087;-68
2022/08/11 10:12:23;;;;;;;18.55;5.78;;;31.70;50.70;;;;;;5034331;28;20171;-72
2022/08/11 10:18:41;;;;;;;22.10;6.53;;;31.60;51.30;;;;;;5035007;28;20032;-71
2022/08/11 10:20:33;;;;;;;34.88;7.47;;;31.70;52.70;;;;;;5033909;28;20037;-72
2022/08/11 10:28:28;;;;;;;18.85;5.10;;;31.70;51.90;;;;;;5034139;28;20413;-76
2022/08/11 10:36:27;;;;;;;10.82;4.68;;;31.70;50.40;;;;;;5033945;28;20175;-72
2022/08/11 10:38:53;;;;;;;18.45;5.03;;;31.70;50.60;;;;;;5033412;28;20029;-68
2022/08/11 10:44:06;;;;;;;8.00;4.53;;;31.70;50.60;;;;;;5033756;28;20064;-68
2022/08/11 10:49:19;;;;;;;11.75;4.78;;;31.80;50.40;;;;;;5033275;28;20040;-65
2022/08/11 11:00:04;;;;;;;12.80;4.50;;;32.30;49.70;;;;;;5033533;28;20124;-75
2022/08/11 11:02:31;;;;;;;16.27;5.50;;;32.50;49.00;;;;;;5033330;28;20025;-71
2022/08/11 11:05:26;;;;;;;16.48;5.13;;;32.60;48.80;;;;;;5032440;28;20506;-73
2022/08/11 11:08:02;;;;;;;15.25;3.97;;;32.70;47.60;;;;;;5033748;28;20028;-71
2022/08/11 11:10:29;;;;;;;8.13;4.05;;;32.70;47.00;;;;;;5032013;28;20083;-69
2022/08/11 11:18:35;;;;;;;16.00;4.25;;;33.00;48.30;;;;;;5033440;28;20040;-70
2022/08/11 11:21:08;;;;;;;13.20;4.38;;;32.90;47.20;;;;;;5032249;28;20034;-72
2022/08/11 11:23:46;;;;;;;5.40;4.00;;;32.80;46.80;;;;;;5033227;28;20071;-74
2022/08/11 11:26:13;;;;;;;8.90;3.83;;;32.70;46.00;;;;;;5033880;28;20102;-74
2022/08/11 11:29:19;;;;;;;13.50;7.72;;;32.60;46.60;;;;;;5033926;28;20336;-75
2022/08/11 11:32:19;;;;;;;7.53;4.10;;;32.50;46.30;;;;;;5039967;28;20021;-73
2022/08/11 11:35:05;;;;;;;8.00;3.97;;;32.40;46.20;;;;;;5047117;28;20025;-73
2022/08/11 11:37:37;;;;;;;10.07;4.47;;;32.40;46.20;;;;;;5034538;28;20025;-74
2022/08/11 11:40:09;;;;;;;8.80;4.90;;;32.50;46.90;;;;;;5033938;28;20034;-73
2022/08/11 11:42:37;;;;;;;7.57;4.18;;;32.50;46.80;;;;;;5033960;28;20029;-75
2022/08/11 11:45:04;;;;;;;6.95;4.20;;;32.60;46.50;;;;;;5033213;28;20045;-73
2022/08/11 11:47:31;;;;;;;10.02;4.78;;;32.60;46.60;;;;;;5032138;28;20430;-73
2022/08/11 11:49:59;;;;;;;8.35;4.97;;;32.60;46.80;;;;;;5033145;28;20102;-72
2022/08/11 11:52:27;;;;;;;10.85;5.00;;;32.60;47.20;;;;;;5033368;28;20026;-74
2022/08/11 11:54:56;;;;;;;13.10;5.00;;;32.50;47.70;;;;;;5033005;28;20083;-76
2022/08/11 12:02:57;;;;;;;9.65;4.63;;;32.10;50.00;;;;;;5033685;28;20079;-74
2022/08/11 12:05:24;;;;;;;8.60;4.75;;;32.00;50.50;;;;;;5032399;28;20478;-74
2022/08/11 12:10:37;;;;;;;15.57;5.22;;;31.90;51.40;;;;;;5036969;28;20533;-75
2022/08/11 12:15:47;;;;;;;10.70;5.30;;;31.90;52.70;;;;;;5036941;28;20399;-74
2022/08/11 12:18:15;;;;;;;8.15;4.60;;;31.80;52.50;;;;;;5036465;28;20029;-74
2022/08/11 12:20:44;;;;;;;11.52;4.57;;;31.70;51.90;;;;;;5036427;28;20033;-73
2022/08/11 12:28:43;;;;;;;5.90;4.20;;;31.50;51.40;;;;;;5037194;28;20107;-74
2022/08/11 12:31:09;;;;;;;8.27;4.55;;;31.40;51.40;;;;;;5036386;28;20034;-74
2022/08/11 12:33:39;;;;;;;8.63;4.28;;;31.40;51.40;;;;;;5036509;28;20033;-74
2022/08/11 12:36:08;;;;;;;7.93;4.40;;;31.40;51.50;;;;;;5036124;28;20029;-74
2022/08/11 12:38:36;;;;;;;11.13;4.15;;;31.50;51.10;;;;;;5036064;28;20038;-74
2022/08/11 12:46:37;;;;;;;19.98;6.85;;;31.60;52.10;;;;;;5035832;28;20095;-74
2022/08/11 12:52:13;;;;;;;19.52;6.68;;;31.70;53.20;;;;;;5036546;28;20049;-74
2022/08/11 12:54:50;;;;;;;25.83;8.55;;;31.70;53.50;;;;;;5034344;28;20036;-73
2022/08/11 13:05:45;;;;;;;11.60;6.38;;;32.00;56.90;;;;;;5036530;28;20044;-75
2022/08/11 13:08:15;;;;;;;13.57;5.60;;;31.90;55.60;;;;;;5034883;28;20022;-75
2022/08/11 13:13:26;;;;;;;10.02;5.82;;;32.10;57.40;;;;;;5035532;28;20055;-74
2022/08/11 13:15:53;;;;;;;9.48;5.68;;;32.30;56.70;;;;;;5035273;28;20077;-75
2022/08/11 13:18:22;;;;;;;12.85;5.32;;;32.40;55.40;;;;;;5033815;28;20036;-74
2022/08/11 13:20:55;;;;;;;8.15;4.80;;;32.60;55.70;;;;;;5035349;28;20029;-74
2022/08/11 13:23:24;;;;;;;6.68;4.70;;;32.80;54.20;;;;;;5035105;28;20018;-74
2022/08/11 13:25:52;;;;;;;8.75;4.72;;;33.00;53.80;;;;;;5034812;28;20037;-73
2022/08/11 13:28:20;;;;;;;11.07;5.40;;;33.20;53.40;;;;;;5035069;28;20102;-74
2022/08/11 13:33:32;;;;;;;11.05;5.18;;;33.40;53.40;;;;;;5035168;28;20040;-73
2022/08/11 13:36:00;;;;;;;9.77;5.47;;;33.50;52.90;;;;;;5034915;28;20030;-75
2022/08/11 13:38:26;;;;;;;13.68;5.85;;;33.70;52.90;;;;;;5034608;28;20043;-73
2022/08/11 13:40:54;;;;;;;8.32;4.90;;;33.80;52.20;;;;;;5035044;28;20034;-73
2022/08/11 13:43:21;;;;;;;9.80;5.70;;;33.90;51.80;;;;;;5034885;28;20912;-73
2022/08/11 13:45:48;;;;;;;8.13;4.57;;;33.90;51.50;;;;;;5034880;28;20087;-73
2022/08/11 13:48:15;;;;;;;12.48;4.55;;;33.90;51.40;;;;;;5033496;28;20057;-73
2022/08/11 13:53:30;;;;;;;8.45;4.35;;;34.10;50.40;;;;;;5036120;28;20128;-73
2022/08/11 13:55:58;;;;;;;11.15;4.80;;;34.10;50.40;;;;;;5050686;28;20044;-73
2022/08/11 13:58:26;;;;;;;8.95;4.47;;;34.00;49.90;;;;;;5042942;28;20050;-75
2022/08/11 14:00:53;;;;;;;16.35;4.80;;;33.90;49.90;;;;;;5035542;28;20074;-74
2022/08/11 14:03:24;;;;;;;7.57;4.40;;;33.80;49.80;;;;;;5034625;28;20029;-72
2022/08/11 14:05:55;;;;;;;8.80;4.60;;;33.70;50.00;;;;;;5034247;28;20536;-75
2022/08/11 14:08:26;;;;;;;8.85;4.80;;;33.50;50.40;;;;;;5034275;28;20448;-73
2022/08/11 14:13:44;;;;;;;9.27;4.43;;;33.30;50.20;;;;;;5034884;28;20040;-74
2022/08/11 14:16:20;;;;;;;8.23;3.97;;;33.20;50.30;;;;;;5034550;28;20022;-73
2022/08/11 14:18:47;;;;;;;10.52;4.38;;;33.20;50.20;;;;;;5034318;28;20120;-75
2022/08/11 14:24:03;;;;;;;8.05;4.20;;;33.20;50.60;;;;;;5034311;28;20068;-73
2022/08/11 14:26:35;;;;;;;7.45;4.43;;;33.10;50.60;;;;;;5033800;28;20431;-74
2022/08/11 14:29:04;;;;;;;9.90;4.25;;;33.10;51.00;;;;;;5033668;28;20441;-73
2022/08/11 14:31:32;;;;;;;10.55;4.43;;;33.00;50.70;;;;;;5034231;28;20018;-75
2022/08/11 14:34:02;;;;;;;9.25;4.53;;;33.00;50.60;;;;;;5032782;28;20021;-73
2022/08/11 14:36:35;;;;;;;7.88;4.20;;;33.10;50.40;;;;;;5034033;28;20025;-76
2022/08/11 14:39:15;;;;;;;6.50;4.22;;;33.10;49.40;;;;;;5032932;28;20022;-74
2022/08/11 14:47:20;;;;;;;6.72;3.95;;;33.20;48.30;;;;;;5034264;28;20117;-76
2022/08/11 14:49:47;;;;;;;5.60;3.65;;;33.30;48.00;;;;;;5033987;28;20029;-72
2022/08/11 14:52:16;;;;;;;6.07;3.60;;;33.40;47.70;;;;;;5032375;28;20056;-73
2022/08/11 14:57:35;;;;;;;6.18;3.92;;;33.60;47.10;;;;;;5033976;28;20033;-74
2022/08/11 15:00:07;;;;;;;7.28;3.85;;;33.60;47.00;;;;;;5032042;28;20037;-75
2022/08/11 15:05:23;;;;;;;6.28;3.95;;;33.50;46.40;;;;;;5033436;28;20083;-74
2022/08/11 15:07:50;;;;;;;5.35;3.58;;;33.40;46.10;;;;;;5031771;28;20034;-75
2022/08/11 15:10:18;;;;;;;8.82;4.20;;;33.30;46.30;;;;;;5033584;28;20064;-75
2022/08/11 15:12:44;;;;;;;6.80;3.75;;;33.20;46.20;;;;;;5033507;28;20072;-73
2022/08/11 15:18:00;;;;;;;7.75;4.18;;;33.10;46.60;;;;;;5033820;28;20037;-74
2022/08/11 15:26:02;;;;;;;10.45;4.30;;;33.00;45.90;;;;;;5033771;28;20404;-75
2022/08/11 15:39:35;;;;;;;9.00;4.30;;;33.30;46.10;;;;;;5033310;28;20048;-74
2022/08/11 15:47:58;;;;;;;10.43;4.00;;;33.70;46.10;;;;;;5037435;28;20444;-75
2022/08/11 15:50:31;;;;;;;10.82;4.30;;;33.80;46.10;;;;;;5035622;28;20028;-74
2022/08/11 15:53:22;;;;;;;;;;;33.80;46.20;;;;;;5037424;28;20467;-74
2022/08/11 15:55:49;;;;;;;7.30;4.88;;;33.80;45.70;;;;;;5036588;28;19948;-74
2022/08/11 16:04:12;;;;;;;6.97;4.10;;;33.90;45.70;;;;;;5036179;28;20032;-76
2022/08/11 16:07:03;;;;;;;8.90;4.30;;;33.90;45.10;;;;;;5035971;28;20028;-75
2022/08/11 16:09:39;;;;;;;7.05;4.10;;;33.90;45.30;;;;;;5035925;28;20533;-75
2022/08/11 16:12:09;;;;;;;7.85;4.45;;;34.00;45.00;;;;;;5034902;28;20029;-73
2022/08/11 16:17:28;;;;;;;7.90;4.45;;;33.90;44.70;;;;;;5036058;28;20043;-74
2022/08/11 16:19:56;;;;;;;6.90;4.68;;;33.90;44.50;;;;;;5034518;28;20512;-75
2022/08/11 16:22:44;;;;;;;8.32;4.63;;;33.90;44.70;;;;;;5034704;28;20391;-75
2022/08/11 16:25:16;;;;;;;8.52;3.85;;;33.90;44.60;;;;;;5036068;28;20029;-73
2022/08/11 16:27:46;;;;;;;6.32;3.85;;;33.90;44.90;;;;;;5035892;28;20101;-75
2022/08/11 16:30:14;;;;;;;8.82;4.03;;;33.90;44.70;;;;;;5035979;28;20029;-74
2022/08/11 16:32:44;;;;;;;11.85;4.57;;;33.90;44.70;;;;;;5036108;28;20017;-74
2022/08/11 16:40:47;;;;;;;7.90;3.40;;;33.80;44.30;;;;;;5035632;28;20182;-73
2022/08/11 16:48:49;;;;;;;8.20;3.35;;;33.70;44.00;;;;;;5036076;28;20107;-74
2022/08/11 16:51:16;;;;;;;7.68;2.97;;;33.60;43.90;;;;;;5035038;28;20049;-73
2022/08/11 16:53:43;;;;;;;9.15;3.83;;;33.40;43.70;;;;;;5035167;28;20022;-74
2022/08/11 16:56:15;;;;;;;7.88;3.40;;;33.30;43.90;;;;;;5035144;28;20094;-74
2022/08/11 17:01:27;;;;;;;5.90;3.17;;;33.30;43.80;;;;;;5035473;28;20080;-74
2022/08/11 17:18:04;;;;;;;5.97;3.38;;;32.80;44.20;;;;;;5034839;28;20112;-73
2022/08/11 17:20:31;;;;;;;10.90;3.30;;;33.00;44.00;;;;;;5034870;28;20080;-74
2022/08/11 17:25:43;;;;;;;6.35;2.97;;;33.20;43.30;;;;;;5034595;28;20048;-74
2022/08/11 17:28:11;;;;;;;8.90;3.20;;;33.20;43.50;;;;;;5034675;28;20121;-73
2022/08/11 17:36:23;;;;;;;5.35;3.10;;;32.80;43.60;;;;;;5049552;28;20136;-74
2022/08/11 17:38:50;;;;;;;7.50;2.80;;;32.60;43.70;;;;;;5034413;28;20021;-76
2022/08/11 17:49:38;;;;;;;7.85;3.15;;;32.00;43.40;;;;;;5034896;28;20036;-73
2022/08/11 18:00:24;;;;;;;8.40;2.83;;;31.60;44.80;;;;;;5034000;28;20506;-75
2022/08/11 18:05:42;;;;;;;9.63;2.80;;;31.50;45.40;;;;;;5033945;28;20087;-73
